Airfield :
LOGIN :

Register | Disclaimer

   EN    FR    IT 

 










Legend :    VFR   Marginal VFR   IFR   Intensive IFR   Very Intensive IFR
Visi :
Ceiling :
>= 8 km
>= 3000ft
5 to 8 km
1000 to 3000 ft
1500m to 5 km
500 to 1000 ft
800 to 1500m
200 to 500 ft
< 800m
< 200 ft
Symbols :   Thunderstorms  Fog  Heavy snow  Heavy precipitations  Wind > 20 kt
SIGMETs :     Misc.  Thunderstorms  Icing  Turbulence  Mountain Waves  Volcanic Ashes







- Airport Elevation : 2302 ft
- Download approach charts


LEAB - Albacete

CURRENT METAR :
  • 130700Z VRB02KT 9000 -RA FEW042 08/07 Q1012 TEMPO RA BKN025

EXPIRED METARs :
  • 130600Z 26005KT 200V310 9000 -RA BKN045 08/07 Q1013 TEMPO RA BKN025
  • 130500Z 25009KT 9000 -RA FEW026 BKN035 09/07 Q1014 TEMPO RA BKN025

TAF TAF LEAB
Valid from the 13 at 06:00 until the 13 at 15:00 UTC


130500Z 1306/1315 29018KT 9999 BKN020
TEMPO 1306/1315 4000 RA BKN015
TEMPO 1309/1315 29024G40KT
PROB30
TEMPO 1313/1315 SCT025CB
No reported NOTAMs for that airfield.
3 SIGMETs reported for the Madrid FIR (LECM) :
 
Severe turbulence
LECM SIGMET 3 VALID 130540/130800 LEVA
LECM MADRID UIR SEV TURB OBS AT 0540Z WI N4340 W00211 - N4247 W00209 - N4243 W00113 - N4309 W00124 - N4340 W00211 FL360/380 STNR NC=
Severe turbulence
LECM SIGMET 2 VALID 130600/131000 LEVA
LECM MADRID FIR/UIR SEV TURB FCST W OF LINE N3757 W00501 - N3554 W00417 FL240/340 MOV E NC=
Severe turbulence
LECM SIGMET 1 VALID 130400/130800 LEVA
LECM MADRID FIR SEV TURB FCST W OF LINE N4435 W006 - N3551 W00506 SFC/FL220 MOV E NC=



MET'MAP, your aeronautical weather chart ! - Copyright ORBIFLY December 2007 - Disclaimer

ORBIFLY MET'MAP TEAM :

Programming & Development : Alexandra Zaïnal
Concept & Development : Baudouin d'Aumeries
Co-Development & Prog : Marc-Olivier Méhu
Technical & hardware support : Manuel Goepfert

Contact : metmap@orbifly.com




SOURCES & CREDITS :

   NOAA